Terminal Aerodrome Forecast
Issued by NWS Sioux Falls, SD

Home | Current Version | Previous Version | Graphics & Text | Print | Product List | Glossary On
Versions: 1 2 3 4 5 6 7 8 9 10 11 12 13 14 15 16
880
FTUS43 KFSD 310801 AAA
TAFHON
TAF AMD
KHON 310801Z 3108/0106 14006KT P6SM VCSH SCT035 BKN050
     FM311000 13005KT P6SM SCT070
     FM311800 14009KT P6SM FEW200=

USA.gov is the U.S. government's official web portal to all federal, state and local government web resources and services.